Home > Products > Valid Products > TAF

000
FTUS44 KAMA 290700 AAA
TAFGUY
TAF AMD
KGUY 290725Z 2907/3006 17006KT P6SM VCTS SCT040CB BKN070
      TEMPO 2907/2911 VRB15G25KT 4SM TSRA BKN040CB
     FM291500 17013G20KT P6SM SCT035 BKN300
     FM300000 17011KT P6SM VCTS SCT035CB BKN300=



000
FTUS44 KAMA 290500
TAFGUY
TAF
KGUY 290520Z 2906/3006 16006KT P6SM SCT040 BKN080
     FM290900 18006KT P6SM VCTS SCT010CB BKN100
     FM291500 17013G20KT P6SM SCT035 BKN300
     FM300000 17011KT P6SM VCTS SCT035CB BKN300=



000
FTUS44 KAMA 290500
TAFDHT
TAF
KDHT 290520Z 2906/3006 14007KT P6SM SCT030 BKN300
     FM290900 17007KT P6SM VCTS SCT010CB BKN100
     FM291500 18013G22KT P6SM SCT035 BKN300
     FM300000 17013KT P6SM VCTS SCT035CB BKN300=



000
FTUS44 KAMA 290500
TAFAMA
TAF
KAMA 290520Z 2906/3006 15008KT P6SM SCT040 BKN300
     FM290900 16009KT P6SM SCT010 BKN300
     FM291600 17014G22KT P6SM SCT035 BKN300
     FM300000 15013KT P6SM VCTS SCT035CB BKN300=



000
FTUS44 KAMA 282300
TAFDHT
TAF
KDHT 282335Z 2900/2924 15009KT P6SM SCT020 BKN300
      TEMPO 2900/2904 BKN020
     FM291000 17007KT P6SM SCT010 BKN050
     FM291600 18013G22KT P6SM SCT035 BKN300=



000
FTUS44 KAMA 282300
TAFGUY
TAF
KGUY 282335Z 2900/2924 18007KT P6SM SCT040 BKN090
     FM291000 18008KT P6SM SCT010 BKN050
     FM291600 18012G20KT P6SM SCT035 BKN300=



000
FTUS44 KAMA 282300
TAFAMA
TAF
KAMA 282335Z 2900/2924 13010KT P6SM SCT040 BKN300
     FM291000 16010KT P6SM SCT010 BKN050
     FM291600 17014G22KT P6SM SCT035 BKN300=



000
FTUS44 KAMA 281900 AAB
TAFGUY
TAF AMD
KGUY 281946Z 2820/2918 16010KT P6SM VCSH SCT040 BKN100
      TEMPO 2820/2822 -SHRA BKN040
     FM290100 19008KT P6SM BKN080
     FM291400 19014KT P6SM SCT010 BKN040=



000
FTUS44 KAMA 281900 AAB
TAFDHT
TAF AMD
KDHT 281945Z 2820/2918 12010KT P6SM VCSH SCT020 BKN100
      TEMPO 2820/2822 -SHRA BKN020
     FM290100 16008KT P6SM BKN080
     FM291400 19016KT P6SM SCT015 BKN060=



000
FTUS44 KAMA 281900 AAB
TAFAMA
TAF AMD
KAMA 281933Z 2820/2918 10013KT P6SM SCT015 BKN080
     FM282200 12012KT P6SM SCT060 BKN200
     FM290100 13008KT P6SM BKN080
     FM291000 16013KT P6SM SCT010 BKN050=



000
FTUS44 KAMA 281800 AAA
TAFGUY
TAF AMD
KGUY 281828Z 2818/2918 16010KT P6SM VCSH SCT040 BKN100
      TEMPO 2818/2822 5SM -SHRA BR BKN040
     FM290100 19008KT P6SM BKN080
     FM291400 19014KT P6SM SCT010 BKN040=



000
FTUS44 KAMA 281800 AAA
TAFDHT
TAF AMD
KDHT 281827Z 2818/2918 12011KT P6SM VCTS SCT015CB BKN080
      TEMPO 2818/2822 4SM -TSRA BR BKN015CB
     FM290100 16008KT P6SM BKN080
     FM291400 19016KT P6SM SCT015 BKN060=



000
FTUS44 KAMA 281800 AAA
TAFAMA
TAF AMD
KAMA 281826Z 2818/2918 10013KT P6SM SCT010 BKN060
      TEMPO 2818/2822 OVC010
     FM282200 12012KT P6SM SCT060 BKN200
     FM290100 13008KT P6SM BKN080
     FM291000 16013KT P6SM SCT010 BKN050=



000
FTUS44 KAMA 281700
TAFGUY
TAF
KGUY 281720Z 2818/2918 16010KT P6SM VCTS SCT040CB BKN100
      TEMPO 2818/2822 5SM -TSRA BR BKN025CB
     FM290100 19008KT P6SM BKN080
     FM291400 19014KT P6SM SCT010 BKN040=



000
FTUS44 KAMA 281700
TAFDHT
TAF
KDHT 281720Z 2818/2918 12011KT P6SM VCTS SCT015CB BKN080
      TEMPO 2818/2822 4SM -TSRA BR OVC012CB
     FM290100 16008KT P6SM BKN080
     FM291400 19016KT P6SM SCT015 BKN060=



000
FTUS44 KAMA 281700
TAFAMA
TAF
KAMA 281720Z 2818/2918 08013KT P6SM SCT005 BKN060
      TEMPO 2818/2822 OVC006
     FM282200 12012KT P6SM SCT060 BKN200
     FM290100 13008KT P6SM BKN080
     FM291000 16013KT P6SM SCT010 BKN050=



000
FTUS44 KAMA 281500 AAE
TAFAMA
TAF AMD
KAMA 281526Z 2815/2912 06014KT P6SM VCTS SCT005 BKN060CB
      TEMPO 2815/2817 5SM -TSRA OVC040CB
     FM281700 12012KT P6SM BKN250
     FM290100 15010KT P6SM BKN080=



000
FTUS44 KAMA 281500 AAA
TAFDHT
TAF AMD
KDHT 281515Z 2815/2912 07011KT P6SM SCT010 BKN080
      TEMPO 2815/2817 BKN010
     FM281700 14012KT P6SM BKN250
     FM290100 16008KT P6SM BKN080=



000
FTUS44 KAMA 281400 AAD
TAFAMA
TAF AMD
KAMA 281450Z 2815/2912 04014KT P6SM VCTS SCT005 BKN050CB
      TEMPO 2815/2817 5SM -TSRA BKN005 OVC040CB
     FM281700 12012KT P6SM BKN250
     FM290100 15010KT P6SM BKN080=



000
FTUS44 KAMA 281300 AAC
TAFAMA
TAF AMD
KAMA 281355Z 2814/2912 04014G24KT P6SM VCTS BKN050CB
      TEMPO 2814/2816 5SM -TSRA BKN030CB
     FM281700 12012KT P6SM BKN250
     FM290100 15010KT P6SM BKN080=



000
FTUS44 KAMA 281300 AAB
TAFAMA
TAF AMD
KAMA 281317Z 2813/2912 04014G24KT P6SM VCTS BKN040CB
      TEMPO 2813/2816 VRB25G35KT 5SM -TSRA BKN025CB
     FM281700 12012KT P6SM BKN250
     FM290100 15010KT P6SM BKN080=



000
FTUS44 KAMA 281200 AAA
TAFAMA
TAF AMD
KAMA 281246Z 2813/2912 04014G24KT P6SM VCTS SCT005 BKN040CB
      TEMPO 2813/2816 VRB25G35KT 5SM -TSRA BKN005CB
     FM281700 12012KT P6SM BKN250
     FM290100 15010KT P6SM BKN080=



000
FTUS44 KAMA 281100
TAFDHT
TAF
KDHT 281122Z 2812/2912 07011KT P6SM BKN080
     FM281600 14012KT P6SM BKN250
     FM290100 16008KT P6SM BKN080=



000
FTUS44 KAMA 281100
TAFAMA
TAF
KAMA 281122Z 2812/2912 35014G22KT P6SM VCTS BKN035CB
      TEMPO 2812/2816 VRB25G35KT 5SM -TSRA BKN010CB
     FM281700 12012KT P6SM BKN250
     FM290100 15010KT P6SM BKN080=



000
FTUS44 KAMA 281100
TAFGUY
TAF
KGUY 281122Z 2812/2912 VRB03KT P6SM BKN090
     FM281700 15010KT P6SM BKN250
     FM290100 16008KT P6SM BKN080=



000
FTUS44 KAMA 280900 AAB
TAFGUY
TAF AMD
KGUY 280904Z 2809/2906 07008KT P6SM VCTS OVC060CB
      TEMPO 2809/2813 VRB20G30KT 2SM TSRA BKN015CB
     FM281600 15010KT P6SM BKN050=



000
FTUS44 KAMA 280800 AAC
TAFAMA
TAF AMD
KAMA 280859Z 2809/2906 07011KT P6SM VCTS BKN015CB
     FM281400 07012KT P6SM SCT025 BKN100
     FM281700 13012KT P6SM BKN050=



000
FTUS44 KAMA 280700 AAB
TAFAMA
TAF AMD
KAMA 280759Z 2808/2906 07011KT P6SM VCTS SCT025CB BKN100
      TEMPO 2808/2811 BKN025CB
     FM281100 07012KT P6SM SCT025 BKN120
     FM281700 13012KT P6SM BKN050=



000
FTUS44 KAMA 280700 AAB
TAFDHT
TAF AMD
KDHT 280749Z 2808/2906 08010KT 4SM TSRA OVC050CB
      TEMPO 2808/2810 VRB20G32KT 1/2SM +TSRA BKN015CB
     FM281000 06008KT P6SM SCT020 BKN120 OVC300
     FM281600 14011KT P6SM BKN040=



000
FTUS44 KAMA 280700 AAA
TAFAMA
TAF AMD
KAMA 280706Z 2807/2906 07013KT P6SM VCTS BKN090CB
     FM281000 07012KT P6SM SCT020 SCT120 OVC300
     FM281700 13012KT P6SM BKN050=



000
FTUS44 KAMA 280600 AAA
TAFGUY
TAF AMD
KGUY 280649Z 2807/2906 07008KT P6SM VCTS SCT100CB BKN300
     FM280900 07007KT P6SM SCT020 SCT120 OVC300
     FM281500 15010KT P6SM BKN050=



000
FTUS44 KAMA 280600 AAA
TAFDHT
TAF AMD
KDHT 280649Z 2807/2906 06010KT P6SM VCTS BKN100CB
      TEMPO 2807/2809 VRB20G30KT 3SM TSRA BKN040CB
     FM280900 06008KT P6SM SCT020 BKN120 OVC300
     FM281600 14011KT P6SM BKN040=



000
FTUS44 KAMA 280500 RRA
TAFGUY
TAF
KGUY 280543Z 2806/2906 07008KT P6SM SCT120 BKN300
     FM280800 07007KT P6SM SCT020 SCT120 OVC300
     FM281500 15010KT P6SM BKN050=



000
FTUS44 KAMA 280500 RRA
TAFDHT
TAF
KDHT 280543Z 2806/2906 06010KT P6SM VCTS BKN100CB OVC300
     FM280900 06008KT P6SM SCT020 BKN120 OVC300
     FM281600 14011KT P6SM BKN040=



000
FTUS44 KAMA 280500 RRA
TAFAMA
TAF
KAMA 280543Z 2806/2906 07013KT P6SM SCT120 OVC300
     FM280800 07012KT P6SM SCT020 SCT120 OVC300
     FM281700 13012KT P6SM BKN050=



000
FTUS44 KAMA 272300 RRA
TAFGUY
TAF
KGUY 272356Z 2800/2824 08010KT P6SM SCT040 BKN100
     FM280300 06006KT P6SM SCT025 BKN100
     FM281500 15010KT P6SM BKN040=



000
FTUS44 KAMA 272300 RRA
TAFDHT
TAF
KDHT 272356Z 2800/2824 06012KT P6SM VCTS SCT040CB BKN100
     FM280300 05008KT P6SM SCT025 BKN080
     FM281400 10011KT P6SM BKN040=



000
FTUS44 KAMA 272300 RRA
TAFAMA
TAF
KAMA 272356Z 2800/2824 05015G23KT P6SM SCT060 BKN300
     FM280400 03008KT P6SM SCT025 BKN100
     FM281400 10014KT P6SM BKN060=



000
FTUS44 KAMA 272000 AAC
TAFAMA
TAF AMD
KAMA 272002Z 2720/2818 06016KT P6SM BKN060
     FM272300 04014KT P6SM SCT060 BKN200
     FM280400 03008KT P6SM SCT025 BKN100
     FM281400 10014KT P6SM BKN060=



000
FTUS44 KAMA 271900 AAA
TAFGUY
TAF AMD
KGUY 272000Z 2720/2818 08015G25KT P6SM SCT040 BKN100
     FM272200 06011KT P6SM VCTS SCT030CB BKN100
     FM280100 03006KT P6SM SCT025 BKN100
     FM281600 13010KT P6SM BKN030=



000
FTUS44 KAMA 271900 AAB
TAFAMA
TAF AMD
KAMA 271924Z 2719/2818 04014KT P6SM BKN060
     FM272000 04014KT P6SM SCT060 BKN200
     FM280400 03008KT P6SM SCT025 BKN100
     FM281400 10014KT P6SM BKN060=



000
FTUS44 KAMA 271900 AAA
TAFAMA
TAF AMD
KAMA 271904Z 2719/2818 06014KT P6SM BKN060
     FM272000 04014KT P6SM SCT060 BKN200
     FM280400 03008KT P6SM SCT025 BKN100
     FM281400 10014KT P6SM BKN060=



000
FTUS44 KAMA 271700
TAFDHT
TAF
KDHT 271720Z 2718/2818 04012KT P6SM SCT060 BKN110
     FM272000 06012KT P6SM VCTS SCT040CB BKN100
     FM280200 05008KT P6SM SCT025 BKN080
     FM281400 08008KT P6SM BKN040=



000
FTUS44 KAMA 271700
TAFAMA
TAF
KAMA 271720Z 2718/2818 03008KT P6SM SCT040 SCT200
     FM272000 04014KT P6SM SCT060 BKN200
     FM280400 03008KT P6SM SCT025 BKN100
     FM281400 10014KT P6SM BKN060=



000
FTUS44 KAMA 271700
TAFGUY
TAF
KGUY 271720Z 2718/2818 08012KT P6SM VCSH BKN035
      TEMPO 2718/2720 SCT040 BKN100
     FM272000 06011KT P6SM VCTS SCT030CB BKN100
     FM280100 03006KT P6SM SCT025 BKN100
     FM281600 13010KT P6SM BKN030=



000
FTUS44 KAMA 271600 AAC
TAFGUY
TAF AMD
KGUY 271626Z 2716/2812 04014KT P6SM VCSH OVC025
      TEMPO 2716/2718 SCT025 BKN100
     FM271800 06014KT P6SM BKN100
     FM280100 02008KT P6SM BKN100=



000
FTUS44 KAMA 271500 AAB
TAFGUY
TAF AMD
KGUY 271521Z 2715/2812 03016KT P6SM VCSH OVC015
      TEMPO 2715/2718 SCT015 BKN100
     FM271800 06014KT P6SM BKN100
     FM280100 02008KT P6SM BKN100=



000
FTUS44 KAMA 271400 AAA
TAFGUY
TAF AMD
KGUY 271443Z 2715/2812 01013KT P6SM VCSH OVC010
     FM271800 06014KT P6SM BKN100
     FM280100 02008KT P6SM BKN100=



000
FTUS44 KAMA 271100
TAFGUY
TAF
KGUY 271120Z 2712/2812 04015KT P6SM -SHRA BKN100
      TEMPO 2712/2716 P6SM -TSRA BKN060CB
     FM271800 06014KT P6SM BKN100
     FM280100 02008KT P6SM BKN100=



000
FTUS44 KAMA 271100
TAFAMA
TAF
KAMA 271120Z 2712/2812 03008KT P6SM SCT250
     FM271800 06014KT P6SM SCT060 SCT250
     FM280400 03008KT P6SM BKN100=



000
FTUS44 KAMA 271100
TAFDHT
TAF
KDHT 271120Z 2712/2812 06008KT P6SM SCT100 BKN250
     FM271600 04016KT P6SM SCT060 SCT250
     FM280000 05008KT P6SM BKN080=



000
FTUS44 KAMA 270800 AAA
TAFGUY
TAF AMD
KGUY 270802Z 2708/2806 33015G23KT P6SM VCTS BKN100CB
     FM271200 01012KT P6SM SCT100 BKN300
     FM271700 05014KT P6SM SCT070 BKN300
     FM280000 06009KT P6SM SCT050 BKN300=



000
FTUS44 KAMA 270500
TAFDHT
TAF
KDHT 270520Z 2706/2806 01012KT P6SM VCTS SCT070CB BKN300
     FM271000 02012KT P6SM SCT070 BKN300
     FM271600 04014KT P6SM SCT070 BKN300
     FM280000 05011KT P6SM SCT050 BKN300=



000
FTUS44 KAMA 270500
TAFGUY
TAF
KGUY 270520Z 2706/2806 32009KT P6SM SCT100 BKN300
     FM271100 01012KT P6SM SCT100 BKN300
     FM271700 05014KT P6SM SCT070 BKN300
     FM280000 06009KT P6SM SCT050 BKN300=



000
FTUS44 KAMA 270500
TAFAMA
TAF
KAMA 270520Z 2706/2806 17011KT P6SM SCT300
     FM271100 35008KT P6SM SCT300
     FM271600 06014KT P6SM SCT070 BKN300
     FM280000 06013KT P6SM SCT050 BKN300=



000
FTUS44 KAMA 262300 RRA
TAFGUY
TAF
KGUY 262341Z 2700/2724 20009KT P6SM SCT100 SCT300
     FM270400 01009KT P6SM SCT100 BKN300
     FM271500 05014KT P6SM SCT070 BKN300=



000
FTUS44 KAMA 262300 RRA
TAFDHT
TAF
KDHT 262341Z 2700/2724 13009KT P6SM SCT110 BKN300
     FM270600 02008KT P6SM SCT100 BKN300
     FM271500 05014KT P6SM SCT070 BKN300=



000
FTUS44 KAMA 262300 RRA
TAFAMA
TAF
KAMA 262341Z 2700/2724 18011KT P6SM FEW120 SCT300
     FM271100 35008KT P6SM BKN300
     FM271600 06013KT P6SM SCT070 BKN300=



000
FTUS44 KAMA 262000 AAA
TAFDHT
TAF AMD
KDHT 262023Z 2620/2718 18014KT P6SM SCT200
     FM262200 13010KT P6SM VCTS SCT110CB BKN200
     FM270800 02008KT P6SM BKN120
     FM271400 04014KT P6SM SCT080 BKN150=



000
FTUS44 KAMA 262000 AAA
TAFAMA
TAF AMD
KAMA 262022Z 2620/2718 17017KT P6SM FEW100
     FM270100 18011KT P6SM SCT200
     FM271000 35009KT P6SM BKN200
     FM271600 07013KT P6SM SCT070 BKN200=



000
FTUS44 KAMA 261700 CCA
TAFDHT
TAF COR
KDHT 261721Z 2618/2718 24010KT P6SM SCT200
     FM262000 13010KT P6SM VCTS SCT110CB BKN200
     FM270800 02008KT P6SM BKN120
     FM271400 04014KT P6SM SCT080 BKN150=



000
FTUS44 KAMA 261700 CCA
TAFGUY
TAF COR
KGUY 261721Z 2618/2718 25010KT P6SM SCT200
     FM262200 12008KT P6SM VCTS SCT100CB BKN200
     FM270500 01008KT P6SM BKN100
     FM271400 04014KT P6SM SCT070 BKN120=



000
FTUS44 KAMA 261700
TAFGUY
TAF
KGUY 261720Z 2618/2718 25010KT P6SM SCT200
     FM262200 12008KT P6SM SCT100 BKN200
     FM270500 01008KT P6SM BKN100
     FM271400 04014KT P6SM SCT070 BKN120=



000
FTUS44 KAMA 261700
TAFDHT
TAF
KDHT 261720Z 2618/2718 22014KT P6SM SCT200
     FM262000 13010KT P6SM SCT110 BKN200
     FM270800 02008KT P6SM BKN120
     FM271400 04014KT P6SM SCT080 BKN150=



000
FTUS44 KAMA 261700
TAFAMA
TAF
KAMA 261720Z 2618/2718 20014KT P6SM FEW100
     FM270100 18011KT P6SM SCT200
     FM271000 35009KT P6SM BKN200
     FM271600 07013KT P6SM SCT070 BKN200=



000
FTUS44 KAMA 261100
TAFGUY
TAF
KGUY 261120Z 2612/2712 22013KT P6SM FEW300
     FM262200 14010KT P6SM SCT100 BKN300
     FM270500 36010KT P6SM BKN100=



000
FTUS44 KAMA 261100
TAFAMA
TAF
KAMA 261120Z 2612/2712 20014KT P6SM FEW300
     FM261400 20015G22KT P6SM SCT100
     FM270100 17013KT P6SM SCT100
     FM271000 28012KT P6SM BKN100=



000
FTUS44 KAMA 261100
TAFDHT
TAF
KDHT 261120Z 2612/2712 21012KT P6SM FEW300
     FM262000 13010KT P6SM SCT100 BKN300
     FM270600 01010KT P6SM BKN100=



    US Dept of Commerce
    National Oceanic and Atmospheric Administration
    National Weather Service
    1325 East West Highway
    Silver Spring, MD 20910
    Page Author: NWS Internet Services Team
Disclaimer
Information Quality
Credits
Glossary
Privacy Policy
Freedom of Information Act (FOIA)
About Us
Career Opportunities